PWSweather.com
Personal Weather Stations
Station Observations
79674
AfterstegDE 79674

AfterstegDE 79674

Lat: 47.84344, Lon: 7.92844

Elevation: 809

Station Type: Davis Vantage 2 Aktive

Latest ConditionsUpdated 12:07:12 PM GMT+01:01 Saturday, Apr 30, 2016
Currently Today's Max Today's Min Today's Average
Temperature 56.5°F13.6°C 57.0°F13.9°C 34.9°F1.6°C 42.7°F5.9°C
Dew Point 36.0°F2.2°C 37.8°F3.2°C 30.9°F-0.6°C 33.9°F1.1°C
Winds 4.0 mph SW6.4 kmh SW 4.9 mph SSE7.9 kmh SSE - 0.9 mph 1.4 kmh
Wind Gusts 4.0 mph6.4 kmh 8.9 mph14.3 kmh - -
Humidity 46% 86% 44% 73%
Pressure 29.98 in1015.2 mb 30.08 in1018.6 mb 29.98 in1015.2 mb -
Hour Temp Dew Point Humidity Winds Wind Gusts Pressure Precip Precip Rate Daily Precip Total
12:07 PM 56.5°F13.6°C 36.0°F2.2°C 46% 4.0 mph SW6.4 kmh SW 4.0 mph6.4 kmh 29.98 in1015.2 mb - 0.00 in0.0 mm 0.00 in0.0 mm
12:02 PM 56.5°F13.6°C 36.0°F2.2°C 46% 2.0 mph S3.2 kmh S 8.9 mph14.3 kmh 29.98 in1015.2 mb - 0.00 in0.0 mm 0.00 in0.0 mm
11:57 AM 56.8°F13.8°C 35.8°F2.1°C 45% 2.0 mph SE3.2 kmh SE 4.0 mph6.4 kmh 29.98 in1015.2 mb - 0.00 in0.0 mm 0.00 in0.0 mm
11:52 AM 56.3°F13.5°C 36.3°F2.4°C 47% 4.0 mph WSW6.4 kmh WSW 2.0 mph3.2 kmh 29.99 in1015.6 mb - 0.00 in0.0 mm 0.00 in0.0 mm
11:47 AM 56.5°F13.6°C 34.9°F1.6°C 44% 2.9 mph N4.7 kmh N -- 29.99 in1015.6 mb - 0.00 in0.0 mm 0.00 in0.0 mm
11:42 AM 57.0°F13.9°C 36.5°F2.5°C 46% 2.0 mph NW3.2 kmh NW 4.9 mph7.9 kmh 29.99 in1015.6 mb - 0.00 in0.0 mm 0.00 in0.0 mm
11:37 AM 56.7°F13.7°C 35.6°F2.0°C 45% 2.9 mph NE4.7 kmh NE 0.9 mph1.4 kmh 29.99 in1015.6 mb - 0.00 in0.0 mm 0.00 in0.0 mm
11:32 AM 56.3°F13.5°C 35.8°F2.1°C 46% 2.9 mph NW4.7 kmh NW 2.9 mph4.7 kmh 29.99 in1015.6 mb - 0.00 in0.0 mm 0.00 in0.0 mm
11:27 AM 55.8°F13.2°C 37.4°F3.0°C 50% 2.0 mph NNE3.2 kmh NNE 0.9 mph1.4 kmh 29.99 in1015.6 mb - 0.00 in0.0 mm 0.00 in0.0 mm
11:22 AM 55.4°F13.0°C 36.0°F2.2°C 48% 4.0 mph S6.4 kmh S 4.9 mph7.9 kmh 29.99 in1015.6 mb - 0.00 in0.0 mm 0.00 in0.0 mm
11:17 AM 55.6°F13.1°C 35.6°F2.0°C 47% 4.9 mph SW7.9 kmh SW 2.0 mph3.2 kmh 29.99 in1015.6 mb - 0.00 in0.0 mm 0.00 in0.0 mm
11:12 AM 55.2°F12.9°C 36.0°F2.2°C 48% 4.0 mph SE6.4 kmh SE 6.0 mph9.7 kmh 29.99 in1015.6 mb - 0.00 in0.0 mm 0.00 in0.0 mm
11:07 AM 55.0°F12.8°C 35.8°F2.1°C 48% 2.9 mph SSE4.7 kmh SSE 6.0 mph9.7 kmh 30.00 in1015.9 mb - 0.00 in0.0 mm 0.00 in0.0 mm
11:02 AM 55.0°F12.8°C 35.2°F1.8°C 47% 2.9 mph S4.7 kmh S 2.0 mph3.2 kmh 30.00 in1015.9 mb - 0.00 in0.0 mm 0.00 in0.0 mm
10:57 AM 55.0°F12.8°C 36.1°F2.3°C 49% 2.9 mph SE4.7 kmh SE 2.9 mph4.7 kmh 30.00 in1015.9 mb - 0.00 in0.0 mm 0.00 in0.0 mm
10:52 AM 54.1°F12.3°C 34.3°F1.3°C 47% 4.0 mph ESE6.4 kmh ESE 0.9 mph1.4 kmh 30.00 in1015.9 mb - 0.00 in0.0 mm 0.00 in0.0 mm
10:47 AM 54.3°F12.4°C 34.0°F1.1°C 46% 4.9 mph SSE7.9 kmh SSE 6.0 mph9.7 kmh 30.00 in1015.9 mb - 0.00 in0.0 mm 0.00 in0.0 mm
10:42 AM 54.7°F12.6°C 36.0°F2.2°C 49% 4.0 mph SSE6.4 kmh SSE 6.0 mph9.7 kmh 30.00 in1015.9 mb - 0.00 in0.0 mm 0.00 in0.0 mm
10:37 AM 53.8°F12.1°C 35.1°F1.7°C 49% 2.9 mph SE4.7 kmh SE 2.0 mph3.2 kmh 30.00 in1015.9 mb - 0.00 in0.0 mm 0.00 in0.0 mm
10:32 AM 53.8°F12.1°C 35.6°F2.0°C 50% 2.9 mph ESE4.7 kmh ESE -- 30.01 in1016.3 mb - 0.00 in0.0 mm 0.00 in0.0 mm
10:27 AM 54.1°F12.3°C 34.3°F1.3°C 47% 2.9 mph NW4.7 kmh NW 2.9 mph4.7 kmh 30.01 in1016.3 mb - 0.00 in0.0 mm 0.00 in0.0 mm
10:22 AM 54.1°F12.3°C 36.0°F2.2°C 50% 2.9 mph W4.7 kmh W 4.9 mph7.9 kmh 30.01 in1016.3 mb - 0.00 in0.0 mm 0.00 in0.0 mm
10:17 AM 54.1°F12.3°C 36.3°F2.4°C 51% 4.0 mph SE6.4 kmh SE 2.9 mph4.7 kmh 30.01 in1016.3 mb - 0.00 in0.0 mm 0.00 in0.0 mm
10:12 AM 54.7°F12.6°C 36.0°F2.2°C 49% 2.9 mph ESE4.7 kmh ESE -- 30.01 in1016.3 mb - 0.00 in0.0 mm 0.00 in0.0 mm
10:07 AM 53.4°F11.9°C 35.8°F2.1°C 51% 2.0 mph SE3.2 kmh SE 2.9 mph4.7 kmh 30.01 in1016.3 mb - 0.00 in0.0 mm 0.00 in0.0 mm
10:02 AM 53.8°F12.1°C 37.0°F2.8°C 53% 2.9 mph SSE4.7 kmh SSE 4.0 mph6.4 kmh 30.01 in1016.3 mb - 0.00 in0.0 mm 0.00 in0.0 mm
09:57 AM 53.8°F12.1°C 37.6°F3.1°C 54% 4.0 mph SE6.4 kmh SE 0.9 mph1.4 kmh 30.01 in1016.3 mb - 0.00 in0.0 mm 0.00 in0.0 mm
09:52 AM 53.2°F11.8°C 35.6°F2.0°C 51% 2.0 mph SSE3.2 kmh SSE 4.0 mph6.4 kmh 30.02 in1016.6 mb - 0.00 in0.0 mm 0.00 in0.0 mm
09:47 AM 52.9°F11.6°C 36.1°F2.3°C 53% 2.0 mph E3.2 kmh E 2.9 mph4.7 kmh 30.02 in1016.6 mb - 0.00 in0.0 mm 0.00 in0.0 mm
09:42 AM 52.5°F11.4°C 36.3°F2.4°C 54% 2.0 mph E3.2 kmh E 0.9 mph1.4 kmh 30.02 in1016.6 mb - 0.00 in0.0 mm 0.00 in0.0 mm
09:37 AM 52.2°F11.2°C 36.9°F2.7°C 56% 2.0 mph S3.2 kmh S 2.0 mph3.2 kmh 30.02 in1016.6 mb - 0.00 in0.0 mm 0.00 in0.0 mm
09:32 AM 52.0°F11.1°C 36.3°F2.4°C 55% 2.0 mph S3.2 kmh S 2.9 mph4.7 kmh 30.02 in1016.6 mb - 0.00 in0.0 mm 0.00 in0.0 mm
09:27 AM 51.3°F10.7°C 35.6°F2.0°C 55% 2.9 mph S4.7 kmh S 2.9 mph4.7 kmh 30.02 in1016.6 mb - 0.00 in0.0 mm 0.00 in0.0 mm
09:22 AM 51.3°F10.7°C 35.6°F2.0°C 55% 2.0 mph S3.2 kmh S 2.0 mph3.2 kmh 30.02 in1016.6 mb - 0.00 in0.0 mm 0.00 in0.0 mm
09:17 AM 51.4°F10.8°C 37.2°F2.9°C 58% 2.0 mph S3.2 kmh S 2.9 mph4.7 kmh 30.02 in1016.6 mb - 0.00 in0.0 mm 0.00 in0.0 mm
09:12 AM 50.7°F10.4°C 35.6°F2.0°C 56% 0.9 mph SE1.4 kmh SE -- 30.02 in1016.6 mb - 0.00 in0.0 mm 0.00 in0.0 mm
09:07 AM 50.7°F10.4°C 36.0°F2.2°C 57% 0.9 mph S1.4 kmh S 2.9 mph4.7 kmh 30.03 in1016.9 mb - 0.00 in0.0 mm 0.00 in0.0 mm
09:02 AM 50.4°F10.2°C 36.1°F2.3°C 58% 0.9 mph S1.4 kmh S -- 30.03 in1016.9 mb - 0.00 in0.0 mm 0.00 in0.0 mm
08:57 AM 50.4°F10.2°C 36.1°F2.3°C 58% Calm Calm 2.0 mph3.2 kmh 30.03 in1016.9 mb - 0.00 in0.0 mm 0.00 in0.0 mm
08:52 AM 50.4°F10.2°C 35.8°F2.1°C 57% Calm Calm -- 30.03 in1016.9 mb - 0.00 in0.0 mm 0.00 in0.0 mm
08:47 AM 50.2°F10.1°C 36.0°F2.2°C 58% Calm Calm -- 30.04 in1017.3 mb - 0.00 in0.0 mm 0.00 in0.0 mm
08:42 AM 49.1°F9.5°C 35.4°F1.9°C 59% Calm Calm -- 30.04 in1017.3 mb - 0.00 in0.0 mm 0.00 in0.0 mm
08:37 AM 48.7°F9.3°C 35.4°F1.9°C 60% Calm Calm -- 30.04 in1017.3 mb - 0.00 in0.0 mm 0.00 in0.0 mm
08:32 AM 49.3°F9.6°C 36.0°F2.2°C 60% Calm Calm -- 30.04 in1017.3 mb - 0.00 in0.0 mm 0.00 in0.0 mm
08:27 AM 48.9°F9.4°C 37.2°F2.9°C 64% Calm Calm -- 30.04 in1017.3 mb - 0.00 in0.0 mm 0.00 in0.0 mm
08:22 AM 48.9°F9.4°C 37.8°F3.2°C 65% 0.9 mph NW1.4 kmh NW -- 30.04 in1017.3 mb - 0.00 in0.0 mm 0.00 in0.0 mm
08:17 AM 48.0°F8.9°C 36.9°F2.7°C 65% 0.9 mph NW1.4 kmh NW -- 30.04 in1017.3 mb - 0.00 in0.0 mm 0.00 in0.0 mm
08:12 AM 47.8°F8.8°C 37.4°F3.0°C 67% 0.9 mph NW1.4 kmh NW 2.9 mph4.7 kmh 30.04 in1017.3 mb - 0.00 in0.0 mm 0.00 in0.0 mm
08:07 AM 46.9°F8.3°C 36.9°F2.7°C 68% Calm Calm 0.9 mph1.4 kmh 30.04 in1017.3 mb - 0.00 in0.0 mm 0.00 in0.0 mm
08:02 AM 45.9°F7.7°C 37.4°F3.0°C 72% Calm Calm -- 30.04 in1017.3 mb - 0.00 in0.0 mm 0.00 in0.0 mm
07:57 AM 45.3°F7.4°C 37.2°F2.9°C 73% Calm Calm -- 30.04 in1017.3 mb - 0.00 in0.0 mm 0.00 in0.0 mm
07:52 AM 44.8°F7.1°C 37.0°F2.8°C 74% Calm Calm -- 30.04 in1017.3 mb - 0.00 in0.0 mm 0.00 in0.0 mm
07:47 AM 43.9°F6.6°C 37.2°F2.9°C 77% Calm Calm -- 30.05 in1017.6 mb - 0.00 in0.0 mm 0.00 in0.0 mm
07:42 AM 43.3°F6.3°C 36.9°F2.7°C 78% Calm Calm -- 30.05 in1017.6 mb - 0.00 in0.0 mm 0.00 in0.0 mm
07:37 AM 43.0°F6.1°C 36.7°F2.6°C 78% Calm Calm -- 30.05 in1017.6 mb - 0.00 in0.0 mm 0.00 in0.0 mm
07:32 AM 42.6°F5.9°C 36.3°F2.4°C 78% Calm Calm -- 30.05 in1017.6 mb - 0.00 in0.0 mm 0.00 in0.0 mm
07:27 AM 42.4°F5.8°C 36.3°F2.4°C 79% Calm Calm -- 30.05 in1017.6 mb - 0.00 in0.0 mm 0.00 in0.0 mm
07:22 AM 42.4°F5.8°C 36.7°F2.6°C 80% Calm Calm -- 30.06 in1017.9 mb - 0.00 in0.0 mm 0.00 in0.0 mm
07:17 AM 41.7°F5.4°C 36.3°F2.4°C 81% Calm Calm -- 30.06 in1017.9 mb - 0.00 in0.0 mm 0.00 in0.0 mm
07:12 AM 41.5°F5.3°C 36.5°F2.5°C 82% Calm Calm -- 30.06 in1017.9 mb - 0.00 in0.0 mm 0.00 in0.0 mm
07:07 AM 41.2°F5.1°C 36.1°F2.3°C 82% 0.9 mph S1.4 kmh S -- 30.06 in1017.9 mb - 0.00 in0.0 mm 0.00 in0.0 mm
07:02 AM 40.8°F4.9°C 36.3°F2.4°C 84% 0.9 mph ESE1.4 kmh ESE -- 30.06 in1017.9 mb - 0.00 in0.0 mm 0.00 in0.0 mm
06:57 AM 40.5°F4.7°C 36.0°F2.2°C 84% Calm Calm -- 30.06 in1017.9 mb - 0.00 in0.0 mm 0.00 in0.0 mm
06:52 AM 39.7°F4.3°C 35.2°F1.8°C 84% Calm Calm -- 30.06 in1017.9 mb - 0.00 in0.0 mm 0.00 in0.0 mm
06:47 AM 39.6°F4.2°C 34.9°F1.6°C 83% Calm Calm -- 30.05 in1017.6 mb - 0.00 in0.0 mm 0.00 in0.0 mm
06:42 AM 39.2°F4.0°C 34.5°F1.4°C 83% Calm Calm -- 30.06 in1017.9 mb - 0.00 in0.0 mm 0.00 in0.0 mm
06:37 AM 39.0°F3.9°C 34.5°F1.4°C 84% Calm Calm -- 30.06 in1017.9 mb - 0.00 in0.0 mm 0.00 in0.0 mm
06:32 AM 38.8°F3.8°C 34.3°F1.3°C 84% Calm Calm -- 30.06 in1017.9 mb - 0.00 in0.0 mm 0.00 in0.0 mm
06:22 AM 38.7°F3.7°C 34.5°F1.4°C 85% Calm Calm 2.0 mph3.2 kmh 30.06 in1017.9 mb - 0.00 in0.0 mm 0.00 in0.0 mm
06:17 AM 38.3°F3.5°C 34.2°F1.2°C 85% Calm Calm -- 30.06 in1017.9 mb - 0.00 in0.0 mm 0.00 in0.0 mm
06:12 AM 38.1°F3.4°C 33.8°F1.0°C 84% Calm Calm -- 30.06 in1017.9 mb - 0.00 in0.0 mm 0.00 in0.0 mm
06:07 AM 37.9°F3.3°C 33.6°F0.9°C 84% Calm Calm -- 30.06 in1017.9 mb - 0.00 in0.0 mm 0.00 in0.0 mm
06:02 AM 37.8°F3.2°C 33.4°F0.8°C 84% Calm Calm -- 30.06 in1017.9 mb - 0.00 in0.0 mm 0.00 in0.0 mm
05:57 AM 37.6°F3.1°C 33.4°F0.8°C 85% Calm Calm -- 30.05 in1017.6 mb - 0.00 in0.0 mm 0.00 in0.0 mm
05:52 AM 37.4°F3.0°C 33.3°F0.7°C 85% 0.9 mph SE1.4 kmh SE -- 30.05 in1017.6 mb - 0.00 in0.0 mm 0.00 in0.0 mm
05:47 AM 37.4°F3.0°C 33.3°F0.7°C 85% Calm Calm -- 30.05 in1017.6 mb - 0.00 in0.0 mm 0.00 in0.0 mm
05:42 AM 37.2°F2.9°C 33.1°F0.6°C 85% Calm Calm -- 30.05 in1017.6 mb - 0.00 in0.0 mm 0.00 in0.0 mm
05:37 AM 37.0°F2.8°C 32.9°F0.5°C 85% Calm Calm -- 30.05 in1017.6 mb - 0.00 in0.0 mm 0.00 in0.0 mm
05:32 AM 37.0°F2.8°C 32.9°F0.5°C 85% Calm Calm -- 30.05 in1017.6 mb - 0.00 in0.0 mm 0.00 in0.0 mm
05:27 AM 36.7°F2.6°C 32.9°F0.5°C 86% Calm Calm 0.9 mph1.4 kmh 30.05 in1017.6 mb - 0.00 in0.0 mm 0.00 in0.0 mm
05:22 AM 36.1°F2.3°C 32.0°F0.0°C 85% Calm Calm -- 30.06 in1017.9 mb - 0.00 in0.0 mm 0.00 in0.0 mm
05:17 AM 36.1°F2.3°C 32.0°F0.0°C 85% Calm Calm -- 30.06 in1017.9 mb - 0.00 in0.0 mm 0.00 in0.0 mm
05:12 AM 36.3°F2.4°C 32.2°F0.1°C 85% Calm Calm -- 30.06 in1017.9 mb - 0.00 in0.0 mm 0.00 in0.0 mm
05:07 AM 36.1°F2.3°C 32.0°F0.0°C 85% Calm Calm 2.0 mph3.2 kmh 30.06 in1017.9 mb - 0.00 in0.0 mm 0.00 in0.0 mm
05:02 AM 36.0°F2.2°C 31.8°F-0.1°C 85% Calm Calm -- 30.06 in1017.9 mb - 0.00 in0.0 mm 0.00 in0.0 mm
04:57 AM 35.8°F2.1°C 32.0°F0.0°C 86% Calm Calm -- 30.06 in1017.9 mb - 0.00 in0.0 mm 0.00 in0.0 mm
04:52 AM 35.4°F1.9°C 31.6°F-0.2°C 86% Calm Calm -- 30.06 in1017.9 mb - 0.00 in0.0 mm 0.00 in0.0 mm
04:47 AM 35.1°F1.7°C 31.3°F-0.4°C 86% Calm Calm -- 30.06 in1017.9 mb - 0.00 in0.0 mm 0.00 in0.0 mm
04:42 AM 35.2°F1.8°C 31.5°F-0.3°C 86% Calm Calm -- 30.06 in1017.9 mb - 0.00 in0.0 mm 0.00 in0.0 mm
04:37 AM 35.2°F1.8°C 31.1°F-0.5°C 85% Calm Calm -- 30.06 in1017.9 mb - 0.00 in0.0 mm 0.00 in0.0 mm
04:32 AM 35.2°F1.8°C 31.1°F-0.5°C 85% Calm Calm -- 30.06 in1017.9 mb - 0.00 in0.0 mm 0.00 in0.0 mm
04:27 AM 35.2°F1.8°C 31.1°F-0.5°C 85% Calm Calm -- 30.06 in1017.9 mb - 0.00 in0.0 mm 0.00 in0.0 mm
04:22 AM 35.4°F1.9°C 31.3°F-0.4°C 85% Calm Calm -- 30.06 in1017.9 mb - 0.00 in0.0 mm 0.00 in0.0 mm
04:17 AM 35.2°F1.8°C 31.5°F-0.3°C 86% Calm Calm -- 30.06 in1017.9 mb - 0.00 in0.0 mm 0.00 in0.0 mm
04:12 AM 35.1°F1.7°C 31.3°F-0.4°C 86% Calm Calm -- 30.06 in1017.9 mb - 0.00 in0.0 mm 0.00 in0.0 mm
04:07 AM 34.9°F1.6°C 30.9°F-0.6°C 85% Calm Calm -- 30.06 in1017.9 mb - 0.00 in0.0 mm 0.00 in0.0 mm
04:02 AM 35.1°F1.7°C 30.9°F-0.6°C 85% Calm Calm -- 30.06 in1017.9 mb - 0.00 in0.0 mm 0.00 in0.0 mm
03:57 AM 35.1°F1.7°C 30.9°F-0.6°C 85% Calm Calm -- 30.06 in1017.9 mb - 0.00 in0.0 mm 0.00 in0.0 mm
03:52 AM 35.2°F1.8°C 30.9°F-0.6°C 84% Calm Calm -- 30.06 in1017.9 mb - 0.00 in0.0 mm 0.00 in0.0 mm
03:47 AM 35.8°F2.1°C 31.1°F-0.5°C 83% Calm Calm -- 30.06 in1017.9 mb - 0.00 in0.0 mm 0.00 in0.0 mm
03:42 AM 36.3°F2.4°C 31.6°F-0.2°C 83% 0.9 mph E1.4 kmh E -- 30.06 in1017.9 mb - 0.00 in0.0 mm 0.00 in0.0 mm
03:37 AM 36.7°F2.6°C 32.0°F0.0°C 83% 2.0 mph NW3.2 kmh NW -- 30.06 in1017.9 mb - 0.00 in0.0 mm 0.00 in0.0 mm
03:32 AM 36.3°F2.4°C 32.0°F0.0°C 84% 0.9 mph NNW1.4 kmh NNW 2.0 mph3.2 kmh 30.06 in1017.9 mb - 0.00 in0.0 mm 0.00 in0.0 mm
03:27 AM 36.1°F2.3°C 31.8°F-0.1°C 84% 0.9 mph NW1.4 kmh NW 0.9 mph1.4 kmh 30.06 in1017.9 mb - 0.00 in0.0 mm 0.00 in0.0 mm
03:22 AM 36.1°F2.3°C 32.0°F0.0°C 85% 0.9 mph NW1.4 kmh NW -- 30.06 in1017.9 mb - 0.00 in0.0 mm 0.00 in0.0 mm
03:17 AM 35.8°F2.1°C 31.6°F-0.2°C 85% 0.9 mph NNE1.4 kmh NNE -- 30.06 in1017.9 mb - 0.00 in0.0 mm 0.00 in0.0 mm
03:12 AM 35.4°F1.9°C 31.3°F-0.4°C 85% Calm Calm -- 30.07 in1018.3 mb - 0.00 in0.0 mm 0.00 in0.0 mm
03:07 AM 35.4°F1.9°C 31.3°F-0.4°C 85% Calm Calm -- 30.06 in1017.9 mb - 0.00 in0.0 mm 0.00 in0.0 mm
03:02 AM 35.2°F1.8°C 30.9°F-0.6°C 84% Calm Calm -- 30.07 in1018.3 mb - 0.00 in0.0 mm 0.00 in0.0 mm
02:57 AM 35.2°F1.8°C 30.9°F-0.6°C 84% Calm Calm -- 30.07 in1018.3 mb - 0.00 in0.0 mm 0.00 in0.0 mm
02:52 AM 35.6°F2.0°C 30.9°F-0.6°C 83% Calm Calm -- 30.07 in1018.3 mb - 0.00 in0.0 mm 0.00 in0.0 mm
02:47 AM 36.1°F2.3°C 31.5°F-0.3°C 83% Calm Calm -- 30.07 in1018.3 mb - 0.00 in0.0 mm 0.00 in0.0 mm
02:42 AM 36.3°F2.4°C 31.6°F-0.2°C 83% Calm Calm -- 30.07 in1018.3 mb - 0.00 in0.0 mm 0.00 in0.0 mm
02:37 AM 36.5°F2.5°C 31.8°F-0.1°C 83% 0.9 mph WNW1.4 kmh WNW -- 30.07 in1018.3 mb - 0.00 in0.0 mm 0.00 in0.0 mm
02:32 AM 36.7°F2.6°C 32.0°F0.0°C 83% 0.9 mph WNW1.4 kmh WNW 0.9 mph1.4 kmh 30.06 in1017.9 mb - 0.00 in0.0 mm 0.00 in0.0 mm
02:27 AM 36.9°F2.7°C 32.2°F0.1°C 83% 2.0 mph E3.2 kmh E 2.0 mph3.2 kmh 30.06 in1017.9 mb - 0.00 in0.0 mm 0.00 in0.0 mm
02:22 AM 36.1°F2.3°C 31.8°F-0.1°C 84% 2.0 mph 3.2 kmh 2.9 mph4.7 kmh 30.07 in1018.3 mb - 0.00 in0.0 mm 0.00 in0.0 mm
02:17 AM 36.0°F2.2°C 31.6°F-0.2°C 84% Calm Calm -- 30.06 in1017.9 mb - 0.00 in0.0 mm 0.00 in0.0 mm
02:12 AM 36.1°F2.3°C 31.8°F-0.1°C 84% Calm Calm -- 30.06 in1017.9 mb - 0.00 in0.0 mm 0.00 in0.0 mm
02:07 AM 36.1°F2.3°C 31.8°F-0.1°C 84% Calm Calm -- 30.07 in1018.3 mb - 0.00 in0.0 mm 0.00 in0.0 mm
02:02 AM 36.0°F2.2°C 31.6°F-0.2°C 84% Calm Calm -- 30.07 in1018.3 mb - 0.00 in0.0 mm 0.00 in0.0 mm
01:57 AM 36.0°F2.2°C 31.6°F-0.2°C 84% Calm Calm -- 30.06 in1017.9 mb - 0.00 in0.0 mm 0.00 in0.0 mm
01:52 AM 36.1°F2.3°C 31.8°F-0.1°C 84% Calm Calm -- 30.07 in1018.3 mb - 0.00 in0.0 mm 0.00 in0.0 mm
01:47 AM 36.1°F2.3°C 31.8°F-0.1°C 84% Calm Calm -- 30.07 in1018.3 mb - 0.00 in0.0 mm 0.00 in0.0 mm
01:42 AM 36.0°F2.2°C 31.6°F-0.2°C 84% Calm Calm -- 30.07 in1018.3 mb - 0.00 in0.0 mm 0.00 in0.0 mm
01:37 AM 36.1°F2.3°C 31.8°F-0.1°C 84% Calm Calm -- 30.07 in1018.3 mb - 0.00 in0.0 mm 0.00 in0.0 mm
01:32 AM 36.0°F2.2°C 31.6°F-0.2°C 84% Calm Calm -- 30.07 in1018.3 mb - 0.00 in0.0 mm 0.00 in0.0 mm
01:27 AM 36.1°F2.3°C 31.8°F-0.1°C 84% Calm Calm -- 30.07 in1018.3 mb - 0.00 in0.0 mm 0.00 in0.0 mm
01:22 AM 36.1°F2.3°C 31.8°F-0.1°C 84% Calm Calm -- 30.07 in1018.3 mb - 0.00 in0.0 mm 0.00 in0.0 mm
01:17 AM 36.3°F2.4°C 32.0°F0.0°C 84% Calm Calm -- 30.07 in1018.3 mb - 0.00 in0.0 mm 0.00 in0.0 mm
01:12 AM 36.3°F2.4°C 32.0°F0.0°C 84% Calm Calm -- 30.07 in1018.3 mb - 0.00 in0.0 mm 0.00 in0.0 mm
01:07 AM 36.3°F2.4°C 32.0°F0.0°C 84% Calm Calm -- 30.07 in1018.3 mb - 0.00 in0.0 mm 0.00 in0.0 mm
01:02 AM 36.3°F2.4°C 32.0°F0.0°C 84% Calm Calm -- 30.07 in1018.3 mb - 0.00 in0.0 mm 0.00 in0.0 mm
12:57 AM 36.3°F2.4°C 32.0°F0.0°C 84% Calm Calm -- 30.08 in1018.6 mb - 0.00 in0.0 mm 0.00 in0.0 mm
12:52 AM 36.5°F2.5°C 32.2°F0.1°C 84% Calm Calm 0.9 mph1.4 kmh 30.07 in1018.3 mb - 0.00 in0.0 mm 0.00 in0.0 mm
12:47 AM 36.7°F2.6°C 32.0°F0.0°C 83% Calm Calm -- 30.08 in1018.6 mb - 0.00 in0.0 mm 0.00 in0.0 mm
12:42 AM 36.9°F2.7°C 32.2°F0.1°C 83% Calm Calm -- 30.08 in1018.6 mb - 0.00 in0.0 mm 0.00 in0.0 mm
12:37 AM 37.2°F2.9°C 32.5°F0.3°C 83% Calm Calm -- 30.08 in1018.6 mb - 0.00 in0.0 mm 0.00 in0.0 mm
12:32 AM 37.2°F2.9°C 32.5°F0.3°C 83% Calm Calm -- 30.07 in1018.3 mb - 0.00 in0.0 mm 0.00 in0.0 mm
12:27 AM 37.2°F2.9°C 32.5°F0.3°C 83% Calm Calm -- 30.08 in1018.6 mb - 0.00 in0.0 mm 0.00 in0.0 mm
12:22 AM 37.2°F2.9°C 32.5°F0.3°C 83% Calm Calm -- 30.07 in1018.3 mb - 0.00 in0.0 mm 0.00 in0.0 mm
12:17 AM 37.4°F3.0°C 32.7°F0.4°C 83% 0.9 mph SE1.4 kmh SE -- 30.08 in1018.6 mb - 0.00 in0.0 mm 0.00 in0.0 mm
12:12 AM 37.2°F2.9°C 32.9°F0.5°C 84% 0.9 mph NNW1.4 kmh NNW 0.9 mph1.4 kmh 30.08 in1018.6 mb - 0.00 in0.0 mm 0.00 in0.0 mm
12:07 AM 36.9°F2.7°C 32.7°F0.4°C 85% Calm Calm 0.9 mph1.4 kmh 30.08 in1018.6 mb - 0.00 in0.0 mm 0.00 in0.0 mm
12:02 AM 36.9°F2.7°C 32.7°F0.4°C 85% Calm Calm -- 30.08 in1018.6 mb - 0.00 in0.0 mm 0.00 in0.0 mm